Time;durP1;ratioP1;P1;durP2;ratioP2;P2;SDS_P1;SDS_P2;PMS_P1;PMS_P2;Temp;Humidity;BMP_temperature;BMP_pressure;BME280_temperature;BME280_humidity;BME280_pressure;Samples;Min_cycle;Max_cycle;Signal;HPM_P1;HPM_P2
2024/04/14 00:02:01;;;;;;;7.30;4.45;;;;;;;16.11;46.89;95760.88;5443338;26;20006;-75
2024/04/14 00:04:26;;;;;;;9.18;4.22;;;;;;;16.04;46.56;95766.72;5445530;26;20014;-74
2024/04/14 00:06:52;;;;;;;7.18;3.60;;;;;;;16.01;46.41;95760.09;5444375;26;20002;-76
2024/04/14 00:09:17;;;;;;;8.80;4.18;;;;;;;16.01;46.22;95762.84;5413896;26;19999;-74
2024/04/14 00:11:42;;;;;;;13.60;4.05;;;;;;;15.98;46.98;95763.75;5413190;26;19999;-75
2024/04/14 00:14:08;;;;;;;6.07;3.67;;;;;;;16.01;46.91;95764.84;5414194;26;20405;-75
2024/04/14 00:16:33;;;;;;;6.82;4.13;;;;;;;16.00;47.20;95764.09;5446049;26;19999;-75
2024/04/14 00:18:58;;;;;;;5.68;3.90;;;;;;;15.99;46.84;95754.19;5443526;26;20010;-75
2024/04/14 00:21:24;;;;;;;9.07;3.55;;;;;;;15.92;46.90;95748.91;5414293;26;20026;-76
2024/04/14 00:23:50;;;;;;;9.68;4.13;;;;;;;15.99;46.93;95747.88;5444863;26;20009;-75
2024/04/14 00:26:15;;;;;;;4.80;3.50;;;;;;;15.98;46.33;95741.56;5443928;26;20003;-76
2024/04/14 00:28:41;;;;;;;7.78;3.35;;;;;;;16.03;46.24;95743.75;5444665;26;19999;-75
2024/04/14 00:31:06;;;;;;;5.22;3.42;;;;;;;15.94;45.67;95738.13;5445348;26;20448;-75
2024/04/14 00:33:34;;;;;;;6.82;3.63;;;;;;;15.89;46.37;95749.84;5443406;26;20350;-75
2024/04/14 00:36:03;;;;;;;4.03;3.13;;;;;;;15.82;46.27;95745.31;5443318;26;19995;-75
2024/04/14 00:38:29;;;;;;;6.13;3.13;;;;;;;15.71;46.21;95742.13;5445546;26;20010;-74
2024/04/14 00:40:54;;;;;;;5.72;3.33;;;;;;;15.78;46.25;95747.44;5444540;26;19995;-75
2024/04/14 00:43:20;;;;;;;5.68;4.03;;;;;;;15.70;46.60;95739.81;5413583;26;20010;-74
2024/04/14 00:45:46;;;;;;;7.03;3.28;;;;;;;15.70;46.23;95745.38;5442601;26;20010;-74
2024/04/14 00:48:12;;;;;;;7.50;3.28;;;;;;;15.67;46.68;95741.50;5443407;26;20432;-75
2024/04/14 00:50:39;;;;;;;8.38;3.50;;;;;;;15.63;46.86;95741.63;5442262;26;20063;-75
2024/04/14 00:53:04;;;;;;;5.05;3.20;;;;;;;15.61;46.90;95735.75;5443150;26;20433;-76
2024/04/14 00:55:30;;;;;;;6.03;3.38;;;;;;;15.58;47.00;95736.63;5443072;26;20067;-74
2024/04/14 00:57:57;;;;;;;6.32;2.92;;;;;;;15.62;47.12;95742.06;5447302;26;19994;-74
2024/04/14 01:00:23;;;;;;;5.55;3.38;;;;;;;15.52;46.92;95752.28;5417493;26;19995;-74
2024/04/14 01:02:50;;;;;;;4.07;3.08;;;;;;;15.46;46.68;95745.00;5445854;26;20068;-75
2024/04/14 01:05:17;;;;;;;4.00;2.67;;;;;;;15.40;46.95;95747.56;5446955;26;20011;-76
2024/04/14 01:07:42;;;;;;;3.30;2.72;;;;;;;15.28;47.27;95737.31;5415937;26;20066;-74
2024/04/14 01:10:08;;;;;;;5.97;2.70;;;;;;;15.32;47.03;95737.97;5416756;26;19994;-76
2024/04/14 01:12:34;;;;;;;4.40;3.03;;;;;;;15.25;47.15;95736.19;5448649;26;20311;-75
2024/04/14 01:14:59;;;;;;;4.18;3.08;;;;;;;15.26;47.28;95743.31;5447744;26;20073;-76
2024/04/14 01:17:24;;;;;;;5.90;2.97;;;;;;;15.36;46.88;95749.69;5446697;26;20006;-76
2024/04/14 01:19:50;;;;;;;9.90;3.20;;;;;;;15.30;47.21;95746.72;5446071;26;20376;-75
2024/04/14 01:22:15;;;;;;;8.35;3.33;;;;;;;15.34;47.00;95744.59;5448592;26;20367;-75
2024/04/14 01:24:41;;;;;;;5.50;3.00;;;;;;;15.33;47.34;95745.06;5445588;26;19999;-75
2024/04/14 01:27:06;;;;;;;4.93;3.15;;;;;;;15.36;47.04;95749.69;5448342;26;20003;-74
2024/04/14 01:29:32;;;;;;;5.97;2.83;;;;;;;15.37;47.05;95749.25;5447704;26;20022;-74
2024/04/14 01:31:57;;;;;;;4.38;3.30;;;;;;;15.42;47.86;95750.66;5415879;26;20031;-75
2024/04/14 01:34:22;;;;;;;6.70;3.40;;;;;;;15.41;48.46;95744.34;5416255;26;19998;-75
2024/04/14 01:36:48;;;;;;;9.95;3.80;;;;;;;15.44;48.91;95753.78;5445689;26;19995;-75
2024/04/14 01:39:13;;;;;;;7.80;3.55;;;;;;;15.39;49.41;95748.81;5446789;26;20010;-74
2024/04/14 01:41:38;;;;;;;3.40;2.88;;;;;;;15.37;49.75;95751.25;5447681;26;19995;-74
2024/04/14 01:44:04;;;;;;;5.18;3.75;;;;;;;15.35;49.88;95746.16;5446361;26;20417;-75
2024/04/14 01:46:30;;;;;;;5.65;3.17;;;;;;;15.36;49.90;95746.91;5445455;26;20445;-75
2024/04/14 01:48:55;;;;;;;5.25;3.13;;;;;;;15.27;49.45;95750.41;5447375;26;20437;-74
2024/04/14 01:51:21;;;;;;;7.32;3.30;;;;;;;15.23;49.10;95746.19;5447977;26;20014;-75
2024/04/14 01:53:46;;;;;;;6.95;3.60;;;;;;;15.17;49.55;95748.75;5445840;26;20318;-76
2024/04/14 01:56:11;;;;;;;5.82;3.10;;;;;;;15.14;49.66;95747.66;5446406;26;20337;-75
2024/04/14 01:58:37;;;;;;;7.47;3.58;;;;;;;15.11;49.69;95743.00;5445597;26;20003;-75
2024/04/14 02:01:02;;;;;;;5.47;3.15;;;;;;;15.06;50.42;95751.09;5447498;26;20302;-74
2024/04/14 02:03:28;;;;;;;7.03;3.83;;;;;;;15.01;50.65;95757.97;5446959;26;20014;-75
2024/04/14 02:05:57;;;;;;;4.93;3.58;;;;;;;14.98;51.40;95758.13;5446891;26;20006;-75
2024/04/14 02:08:22;;;;;;;6.57;3.35;;;;;;;15.00;51.23;95758.44;5446087;26;20425;-75
2024/04/14 02:10:47;;;;;;;5.70;3.25;;;;;;;14.93;51.33;95748.38;5445437;26;19995;-74
2024/04/14 02:13:13;;;;;;;4.22;3.20;;;;;;;14.92;51.65;95762.66;5447522;26;19995;-75
2024/04/14 02:15:39;;;;;;;6.10;3.45;;;;;;;14.85;52.01;95756.13;5445388;26;20014;-76
2024/04/14 02:18:05;;;;;;;5.78;3.63;;;;;;;14.78;52.33;95759.13;5445500;26;20024;-75
2024/04/14 02:20:31;;;;;;;7.30;3.65;;;;;;;14.67;52.34;95753.16;5445484;26;19998;-75
2024/04/14 02:22:56;;;;;;;8.05;4.15;;;;;;;14.70;52.50;95746.75;5447191;26;20005;-74
2024/04/14 02:25:21;;;;;;;5.85;4.20;;;;;;;14.60;52.78;95748.63;5445060;26;20006;-76
2024/04/14 02:27:47;;;;;;;10.93;4.07;;;;;;;14.53;52.91;95748.84;5445525;26;20009;-75
2024/04/14 02:30:12;;;;;;;6.90;4.07;;;;;;;14.47;52.68;95747.84;5445458;26;19995;-76
2024/04/14 02:32:39;;;;;;;9.77;4.15;;;;;;;14.43;53.10;95747.16;5445210;26;20430;-75
2024/04/14 02:35:06;;;;;;;5.45;3.70;;;;;;;14.36;53.42;95744.63;5415508;26;19999;-75
2024/04/14 02:37:32;;;;;;;9.32;4.00;;;;;;;14.37;53.03;95748.16;5415842;26;20271;-75
2024/04/14 02:39:57;;;;;;;10.05;4.00;;;;;;;14.33;53.02;95746.25;5447045;26;20433;-75
2024/04/14 02:42:23;;;;;;;5.88;3.80;;;;;;;14.30;52.83;95741.63;5446627;26;19999;-75
2024/04/14 02:44:48;;;;;;;6.50;3.70;;;;;;;14.22;53.18;95742.25;5445006;26;20399;-75
2024/04/14 02:47:14;;;;;;;7.05;3.80;;;;;;;14.18;53.57;95750.69;5444791;26;19998;-76
2024/04/14 02:49:39;;;;;;;5.80;3.47;;;;;;;14.11;52.65;95745.38;5446812;26;19995;-75
2024/04/14 02:52:06;;;;;;;7.70;3.80;;;;;;;14.05;53.72;95744.38;5444930;26;20071;-76
2024/04/14 02:54:31;;;;;;;10.05;4.55;;;;;;;14.08;53.89;95755.31;5446729;26;20326;-76
2024/04/14 02:56:57;;;;;;;8.10;3.53;;;;;;;14.03;53.92;95744.03;5445198;26;20314;-76
2024/04/14 02:59:22;;;;;;;6.60;3.67;;;;;;;13.98;54.17;95748.09;5414689;26;19999;-76
2024/04/14 03:01:48;;;;;;;8.75;3.78;;;;;;;13.94;54.34;95744.69;5446886;26;20306;-75
2024/04/14 03:04:13;;;;;;;5.38;3.30;;;;;;;13.94;53.82;95750.22;5446617;26;20014;-75
2024/04/14 03:06:38;;;;;;;8.55;3.85;;;;;;;13.96;54.00;95749.75;5446495;26;19999;-74
2024/04/14 03:09:04;;;;;;;4.30;3.28;;;;;;;13.93;54.73;95756.16;5445934;26;19995;-75
2024/04/14 03:11:30;;;;;;;9.05;4.00;;;;;;;13.91;54.84;95762.13;5444485;26;20453;-74
2024/04/14 03:13:55;;;;;;;12.48;4.35;;;;;;;13.85;55.08;95758.34;5444676;26;20169;-75
2024/04/14 03:16:20;;;;;;;9.40;4.15;;;;;;;13.82;54.95;95764.78;5444700;26;20750;-74
2024/04/14 03:18:49;;;;;;;8.48;4.15;;;;;;;13.79;55.49;95763.66;5445928;26;19991;-74
2024/04/14 03:21:14;;;;;;;9.05;4.78;;;;;;;13.73;55.36;95759.88;5445666;26;19998;-76
2024/04/14 03:23:40;;;;;;;9.00;4.30;;;;;;;13.70;55.85;95771.78;5446474;26;20292;-75
2024/04/14 03:26:05;;;;;;;6.13;3.70;;;;;;;13.64;55.61;95765.25;5445329;26;20007;-74
2024/04/14 03:28:31;;;;;;;7.90;4.35;;;;;;;13.65;55.74;95766.03;5444625;26;20006;-75
2024/04/14 03:31:01;;;;;;;9.63;4.65;;;;;;;13.59;55.31;95768.56;5444054;26;19998;-76
2024/04/14 03:33:27;;;;;;;11.35;4.20;;;;;;;13.57;55.04;95764.69;5444257;26;20425;-75
2024/04/14 03:36:04;;;;;;;8.77;4.15;;;;;;;13.53;55.31;95770.28;5444132;26;20032;-75
2024/04/14 03:38:29;;;;;;;6.28;3.65;;;;;;;13.50;55.70;95768.41;5443601;26;20005;-76
2024/04/14 03:40:55;;;;;;;6.25;3.97;;;;;;;13.54;56.18;95771.88;5414001;26;20003;-75
2024/04/14 03:43:20;;;;;;;5.00;3.90;;;;;;;13.48;55.83;95768.84;5445562;26;19999;-74
2024/04/14 03:45:46;;;;;;;7.90;4.32;;;;;;;13.48;56.13;95774.38;5445347;26;20032;-74
2024/04/14 03:48:11;;;;;;;8.55;4.25;;;;;;;13.49;56.15;95778.69;5443967;26;19995;-74
2024/04/14 03:50:37;;;;;;;8.02;4.50;;;;;;;13.49;55.54;95770.41;5414187;26;20006;-75
2024/04/14 03:53:02;;;;;;;10.88;4.82;;;;;;;13.44;55.59;95779.22;5444012;26;20003;-75
2024/04/14 03:55:27;;;;;;;6.13;4.90;;;;;;;13.40;55.36;95766.72;5445449;26;19994;-75
2024/04/14 03:57:53;;;;;;;10.80;4.60;;;;;;;13.38;55.24;95766.38;5444192;26;20009;-77
2024/04/14 04:00:18;;;;;;;9.35;4.25;;;;;;;13.36;55.32;95764.06;5445432;26;20151;-75
2024/04/14 04:02:43;;;;;;;8.15;4.60;;;;;;;13.37;55.58;95764.81;5414006;26;20002;-75
2024/04/14 04:05:09;;;;;;;7.20;5.03;;;;;;;13.32;55.54;95762.59;5445135;26;20075;-75
2024/04/14 04:07:35;;;;;;;8.98;4.53;;;;;;;13.32;55.83;95773.63;5443739;26;20433;-76
2024/04/14 04:10:00;;;;;;;8.20;4.50;;;;;;;13.32;55.88;95765.34;5445399;26;20425;-76
2024/04/14 04:12:25;;;;;;;8.10;4.38;;;;;;;13.27;56.06;95767.41;5443783;26;20382;-75
2024/04/14 04:14:51;;;;;;;7.72;4.53;;;;;;;13.32;56.24;95770.88;5445487;26;20006;-75
2024/04/14 04:17:17;;;;;;;7.47;4.80;;;;;;;13.31;56.11;95775.63;5443467;26;20044;-74
2024/04/14 04:19:42;;;;;;;9.40;4.65;;;;;;;13.23;56.47;95777.00;5443919;26;20023;-75
2024/04/14 04:22:07;;;;;;;13.75;5.15;;;;;;;13.22;56.39;95776.22;5444891;26;19995;-75
2024/04/14 04:24:33;;;;;;;8.20;5.55;;;;;;;13.24;56.51;95786.84;5445978;26;20013;-75
2024/04/14 04:26:58;;;;;;;9.43;5.60;;;;;;;13.23;56.78;95777.78;5413460;26;20006;-75
2024/04/14 04:29:25;;;;;;;8.35;5.88;;;;;;;13.25;56.65;95791.94;5445149;26;20448;-75
2024/04/14 04:31:51;;;;;;;8.23;5.85;;;;;;;13.28;56.65;95799.34;5445353;26;20009;-74
2024/04/14 04:34:16;;;;;;;10.60;6.20;;;;;;;13.25;56.53;95789.19;5416984;26;20259;-76
2024/04/14 04:36:44;;;;;;;13.13;6.72;;;;;;;13.32;56.08;95790.97;5447324;26;19994;-74
2024/04/14 04:39:09;;;;;;;13.27;7.85;;;;;;;13.31;55.98;95794.97;5446491;26;19995;-76
2024/04/14 04:41:35;;;;;;;6.60;5.80;;;;;;;13.31;55.90;95796.94;5449094;26;20326;-74
2024/04/14 04:44:03;;;;;;;7.70;5.35;;;;;;;13.34;55.16;95794.06;5446273;26;19995;-75
2024/04/14 04:46:29;;;;;;;6.70;5.03;;;;;;;13.35;55.28;95801.13;5446931;26;20033;-76
2024/04/14 04:48:56;;;;;;;8.73;5.20;;;;;;;13.27;55.32;95788.75;5446580;26;20015;-76
2024/04/14 04:51:22;;;;;;;7.28;5.40;;;;;;;13.26;55.14;95804.53;5447009;26;20105;-75
2024/04/14 04:53:48;;;;;;;8.32;5.68;;;;;;;13.29;55.38;95800.88;5447135;26;20032;-75
2024/04/14 04:56:13;;;;;;;7.18;5.55;;;;;;;13.32;55.08;95807.53;5446119;26;20002;-76
2024/04/14 04:58:38;;;;;;;8.27;5.18;;;;;;;13.29;55.17;95808.41;5416920;26;20404;-77
2024/04/14 05:01:04;;;;;;;8.68;5.30;;;;;;;13.28;54.97;95806.84;5445701;26;20089;-74
2024/04/14 05:03:29;;;;;;;8.98;5.15;;;;;;;13.27;55.26;95803.31;5446741;26;20003;-75
2024/04/14 05:05:56;;;;;;;7.20;5.32;;;;;;;13.31;55.28;95808.00;5445683;26;20071;-74
2024/04/14 05:08:23;;;;;;;9.05;5.25;;;;;;;13.31;55.33;95810.75;5446612;26;20404;-75
2024/04/14 05:10:48;;;;;;;9.30;5.50;;;;;;;13.35;55.29;95816.94;5448245;26;20023;-75
2024/04/14 05:13:13;;;;;;;7.35;5.28;;;;;;;13.37;55.02;95815.31;5447782;26;20003;-76
2024/04/14 05:15:39;;;;;;;8.35;5.30;;;;;;;13.33;55.16;95808.31;5446757;26;19999;-74
2024/04/14 05:18:04;;;;;;;6.88;4.97;;;;;;;13.44;55.19;95823.41;5447243;26;20006;-74
2024/04/14 05:20:29;;;;;;;6.38;5.72;;;;;;;13.44;54.93;95811.59;5447986;26;20010;-75
2024/04/14 05:22:55;;;;;;;10.60;5.63;;;;;;;13.51;55.15;95820.44;5447426;26;20007;-75
2024/04/14 05:25:20;;;;;;;6.10;5.30;;;;;;;13.52;55.16;95810.94;5448092;26;20048;-75
2024/04/14 05:27:46;;;;;;;9.75;5.38;;;;;;;13.61;55.15;95820.63;5446124;26;20077;-74
2024/04/14 05:30:11;;;;;;;6.90;5.63;;;;;;;13.68;54.92;95825.94;5447637;26;19994;-74
2024/04/14 05:32:36;;;;;;;9.13;5.85;;;;;;;13.67;54.79;95821.63;5448210;26;20067;-74
2024/04/14 05:35:02;;;;;;;7.45;5.35;;;;;;;13.74;54.57;95824.19;5447493;26;20007;-76
2024/04/14 05:37:27;;;;;;;5.95;5.07;;;;;;;13.78;54.75;95824.88;5447817;26;20006;-75
2024/04/14 05:39:53;;;;;;;7.65;4.80;;;;;;;13.81;54.63;95812.94;5446981;26;19999;-75
2024/04/14 05:42:18;;;;;;;6.35;5.28;;;;;;;13.83;54.66;95816.06;5447639;26;20006;-75
2024/04/14 05:44:47;;;;;;;8.50;4.93;;;;;;;13.89;54.16;95819.06;5447413;26;20026;-75
2024/04/14 05:47:13;;;;;;;6.78;4.80;;;;;;;13.99;53.93;95823.50;5445580;26;20425;-75
2024/04/14 05:49:38;;;;;;;9.27;5.20;;;;;;;13.96;54.00;95814.13;5447701;26;19999;-75
2024/04/14 05:52:04;;;;;;;8.45;5.15;;;;;;;14.08;53.90;95815.34;5447335;26;20007;-76
2024/04/14 05:54:30;;;;;;;8.85;5.28;;;;;;;14.13;53.77;95808.53;5445730;26;20310;-74
2024/04/14 05:56:55;;;;;;;10.30;5.80;;;;;;;14.29;53.34;95819.50;5445106;26;20002;-74
2024/04/14 05:59:21;;;;;;;7.53;5.63;;;;;;;14.34;53.54;95816.97;5446159;26;19999;-75
2024/04/14 06:01:47;;;;;;;9.70;5.93;;;;;;;14.33;53.77;95814.63;5447151;26;19994;-76
2024/04/14 06:04:13;;;;;;;10.27;6.20;;;;;;;14.37;53.91;95812.53;5445565;26;20021;-76
2024/04/14 06:06:38;;;;;;;7.75;5.03;;;;;;;14.43;54.03;95816.31;5447080;26;20302;-76
2024/04/14 06:09:04;;;;;;;7.95;5.85;;;;;;;14.47;53.95;95819.00;5447567;26;20382;-76
2024/04/14 06:11:30;;;;;;;9.20;5.80;;;;;;;14.56;53.91;95819.13;5446282;26;19999;-75
2024/04/14 06:13:55;;;;;;;8.07;5.85;;;;;;;14.61;53.69;95821.34;5447164;26;19994;-76
2024/04/14 06:16:21;;;;;;;11.50;6.47;;;;;;;14.60;53.76;95811.50;5446116;26;20002;-75
2024/04/14 06:18:46;;;;;;;12.18;5.97;;;;;;;14.67;53.67;95818.78;5444749;26;19999;-74
2024/04/14 06:21:11;;;;;;;9.90;6.18;;;;;;;14.72;53.57;95819.00;5445696;26;20007;-76
2024/04/14 06:23:38;;;;;;;9.57;6.15;;;;;;;14.77;53.35;95823.22;5446150;26;20429;-75
2024/04/14 06:26:03;;;;;;;7.72;5.80;;;;;;;14.84;53.04;95823.00;5415440;26;20384;-75
2024/04/14 06:28:30;;;;;;;9.07;7.00;;;;;;;14.93;52.83;95820.34;5415421;26;20002;-76
2024/04/14 06:30:56;;;;;;;9.55;6.55;;;;;;;15.00;52.75;95819.34;5414935;26;20394;-76
2024/04/14 06:33:21;;;;;;;12.07;8.93;;;;;;;15.08;52.65;95827.00;5445685;26;20003;-75
2024/04/14 06:35:47;;;;;;;16.05;10.25;;;;;;;15.08;52.50;95815.91;5444638;26;20336;-76
2024/04/14 06:38:12;;;;;;;12.82;8.80;;;;;;;15.19;52.51;95812.78;5447096;26;19998;-74
2024/04/14 06:40:39;;;;;;;11.85;9.68;;;;;;;15.25;52.11;95813.75;5444558;26;19995;-74
2024/04/14 06:43:04;;;;;;;14.32;10.00;;;;;;;15.42;51.67;95819.94;5444650;26;20359;-73
2024/04/14 06:45:30;;;;;;;15.13;9.70;;;;;;;15.51;51.58;95819.25;5444736;26;19998;-72
2024/04/14 06:47:55;;;;;;;11.73;7.97;;;;;;;15.54;51.39;95813.59;5443116;26;20016;-73
2024/04/14 06:50:21;;;;;;;9.93;6.95;;;;;;;15.68;51.25;95819.91;5446615;26;20010;-74
2024/04/14 06:52:46;;;;;;;10.75;7.03;;;;;;;15.79;51.31;95812.75;5445997;26;20298;-73
2024/04/14 06:55:12;;;;;;;12.25;7.10;;;;;;;15.93;50.94;95814.22;5444285;26;20010;-75
2024/04/14 06:57:38;;;;;;;11.63;7.72;;;;;;;16.01;50.40;95812.00;5446373;26;20034;-74
2024/04/14 07:00:04;;;;;;;15.02;8.27;;;;;;;16.00;50.72;95805.69;5446562;26;20025;-74
2024/04/14 07:02:29;;;;;;;12.52;9.43;;;;;;;16.11;50.50;95808.81;5444369;26;19995;-74
2024/04/14 07:04:54;;;;;;;14.80;7.63;;;;;;;16.24;50.27;95803.22;5446229;26;20009;-73
2024/04/14 07:07:20;;;;;;;7.95;6.63;;;;;;;16.35;49.62;95806.38;5445935;26;19998;-73
2024/04/14 07:09:45;;;;;;;14.60;6.63;;;;;;;16.49;49.75;95802.25;5444580;26;20007;-73
2024/04/14 07:12:11;;;;;;;17.27;6.97;;;;;;;16.53;49.79;95805.69;5444424;26;19998;-74
2024/04/14 07:14:36;;;;;;;10.38;6.68;;;;;;;16.62;49.36;95796.63;5444431;26;20071;-72
2024/04/14 07:17:02;;;;;;;14.07;6.22;;;;;;;16.71;49.07;95805.78;5446138;26;20010;-73
2024/04/14 07:19:27;;;;;;;8.68;6.22;;;;;;;16.84;48.54;95796.59;5445907;26;20002;-73
2024/04/14 07:21:53;;;;;;;9.88;5.78;;;;;;;16.93;48.71;95802.97;5414626;26;20432;-72
2024/04/14 07:24:18;;;;;;;12.15;5.20;;;;;;;17.08;47.85;95799.59;5445617;26;20071;-72
2024/04/14 07:26:44;;;;;;;6.45;3.63;;;;;;;17.24;47.35;95800.09;5414773;26;20379;-73
2024/04/14 07:29:09;;;;;;;5.90;3.63;;;;;;;17.33;47.15;95791.03;5445880;26;19994;-73
2024/04/14 07:31:35;;;;;;;7.45;3.90;;;;;;;17.45;47.08;95798.44;5444396;26;20005;-73
2024/04/14 07:34:01;;;;;;;9.77;4.70;;;;;;;17.57;47.19;95796.75;5444501;26;20322;-73
2024/04/14 07:36:28;;;;;;;5.45;4.32;;;;;;;17.72;46.62;95799.72;5445442;26;20399;-73
2024/04/14 07:38:53;;;;;;;7.00;3.63;;;;;;;17.91;45.73;95792.16;5413937;26;20434;-71
2024/04/14 07:41:19;;;;;;;5.03;3.60;;;;;;;17.97;46.00;95788.28;5443083;26;19995;-72
2024/04/14 07:43:45;;;;;;;6.53;3.72;;;;;;;18.08;45.83;95792.63;5444499;26;20069;-73
2024/04/14 07:46:11;;;;;;;7.32;3.70;;;;;;;18.30;44.79;95793.97;5445400;26;20071;-72
2024/04/14 07:48:36;;;;;;;6.07;3.38;;;;;;;18.39;45.02;95787.59;5444107;26;20007;-73
2024/04/14 07:51:02;;;;;;;5.22;3.50;;;;;;;18.51;45.10;95789.41;5446479;26;20474;-73
2024/04/14 07:53:28;;;;;;;9.68;3.53;;;;;;;18.73;44.30;95789.22;5445248;26;20006;-73
2024/04/14 07:55:54;;;;;;;4.32;3.10;;;;;;;18.88;43.54;95780.97;5444435;26;20029;-73
2024/04/14 07:58:20;;;;;;;9.00;3.00;;;;;;;18.98;43.67;95792.81;5444747;26;20002;-73
2024/04/14 08:00:46;;;;;;;6.18;3.05;;;;;;;19.16;43.10;95781.59;5445604;26;20043;-72
2024/04/14 08:03:11;;;;;;;6.57;2.90;;;;;;;19.30;42.72;95777.34;5445208;26;20071;-72
2024/04/14 08:05:36;;;;;;;6.03;3.67;;;;;;;19.38;42.69;95789.66;5443885;26;20005;-73
2024/04/14 08:08:02;;;;;;;5.75;2.83;;;;;;;19.48;42.69;95787.59;5449039;26;20037;-75
2024/04/14 08:10:27;;;;;;;6.45;3.50;;;;;;;19.63;42.42;95785.66;5447557;26;20003;-72
2024/04/14 08:12:53;;;;;;;5.57;3.20;;;;;;;19.81;42.23;95791.09;5447681;26;20322;-72
2024/04/14 08:15:18;;;;;;;7.93;3.38;;;;;;;19.91;42.32;95791.81;5416851;26;19999;-72
2024/04/14 08:17:43;;;;;;;6.75;3.60;;;;;;;20.02;42.38;95794.81;5449415;26;20326;-74
2024/04/14 08:20:11;;;;;;;6.43;3.33;;;;;;;20.17;42.01;95781.63;5448504;26;20067;-72
2024/04/14 08:22:36;;;;;;;3.67;2.60;;;;;;;20.33;41.93;95785.22;5449403;26;20059;-72
2024/04/14 08:25:02;;;;;;;6.32;3.00;;;;;;;20.46;41.38;95770.97;5447191;26;20003;-73
2024/04/14 08:27:27;;;;;;;5.75;3.20;;;;;;;20.71;39.62;95781.56;5447487;26;19999;-73
2024/04/14 08:29:52;;;;;;;4.78;2.90;;;;;;;20.91;39.56;95778.06;5447590;26;20031;-73
2024/04/14 08:32:19;;;;;;;8.35;3.40;;;;;;;21.04;39.34;95774.94;5446168;26;20445;-73
2024/04/14 08:34:44;;;;;;;6.18;3.10;;;;;;;21.20;38.42;95769.59;5448846;26;20006;-72
2024/04/14 08:37:10;;;;;;;6.90;3.20;;;;;;;21.41;38.52;95790.00;5447776;26;20067;-73
2024/04/14 08:39:35;;;;;;;6.97;3.28;;;;;;;21.57;38.39;95783.09;5448949;26;20038;-73
2024/04/14 08:42:05;;;;;;;7.72;3.95;;;;;;;21.70;38.13;95779.94;5447799;26;20002;-72
2024/04/14 08:44:32;;;;;;;7.65;3.60;;;;;;;21.95;37.16;95784.03;5448718;26;19999;-73
2024/04/14 08:46:58;;;;;;;4.45;2.55;;;;;;;22.13;37.05;95771.78;5416817;26;20071;-73
2024/04/14 08:49:23;;;;;;;3.95;2.78;;;;;;;22.34;36.83;95773.28;5416126;26;20426;-73
2024/04/14 08:51:49;;;;;;;4.65;2.60;;;;;;;22.59;35.45;95773.75;5446864;26;20450;-73
2024/04/14 08:54:15;;;;;;;5.05;2.55;;;;;;;22.75;35.69;95768.28;5445783;26;20459;-74
2024/04/14 08:56:40;;;;;;;4.45;2.70;;;;;;;23.01;34.36;95771.06;5448315;26;19999;-73
2024/04/14 08:59:07;;;;;;;4.93;2.40;;;;;;;23.25;33.97;95775.56;5447453;26;20010;-73
2024/04/14 09:01:36;;;;;;;6.30;3.15;;;;;;;23.42;32.85;95759.59;5417024;26;20007;-73
2024/04/14 09:04:03;;;;;;;6.45;2.40;;;;;;;23.69;33.37;95772.25;5416408;26;20014;-73
2024/04/14 09:06:29;;;;;;;4.90;3.25;;;;;;;23.95;32.29;95766.47;5446401;26;19999;-73
2024/04/14 09:08:55;;;;;;;5.28;2.90;;;;;;;24.21;32.52;95760.66;5447041;26;19995;-73
2024/04/14 09:11:20;;;;;;;6.72;2.50;;;;;;;24.39;32.02;95759.44;5447379;26;19995;-74
2024/04/14 09:13:46;;;;;;;5.55;2.70;;;;;;;24.68;31.22;95751.81;5448286;26;20014;-74
2024/04/14 09:16:12;;;;;;;4.80;2.50;;;;;;;24.95;31.35;95759.47;5447242;26;20016;-74
2024/04/14 09:18:37;;;;;;;3.30;2.25;;;;;;;25.21;30.23;95747.16;5446405;26;20291;-74
2024/04/14 09:21:03;;;;;;;4.53;1.92;;;;;;;25.42;30.20;95745.59;5446124;26;20090;-74
2024/04/14 09:23:28;;;;;;;7.75;3.13;;;;;;;25.71;29.87;95749.06;5448033;26;20325;-73
2024/04/14 09:25:54;;;;;;;4.93;2.63;;;;;;;25.88;28.46;95738.53;5446645;26;20074;-73
2024/04/14 09:28:19;;;;;;;8.10;3.20;;;;;;;26.08;28.00;95743.00;5445823;26;20360;-73
2024/04/14 09:30:45;;;;;;;5.78;2.42;;;;;;;26.32;28.22;95743.13;5416607;26;20068;-74
2024/04/14 09:33:11;;;;;;;4.78;2.78;;;;;;;26.51;27.23;95746.09;5445420;26;20038;-75
2024/04/14 09:35:36;;;;;;;6.30;2.55;;;;;;;26.79;26.96;95736.66;5446489;26;20507;-73
2024/04/14 09:38:06;;;;;;;7.53;3.33;;;;;;;27.04;26.73;95741.03;5445489;26;20420;-73
2024/04/14 09:40:32;;;;;;;5.97;1.98;;;;;;;27.29;25.48;95736.19;5446439;26;20003;-74
2024/04/14 09:42:59;;;;;;;8.18;2.10;;;;;;;27.54;25.64;95736.97;5446360;26;19991;-75
2024/04/14 09:45:25;;;;;;;3.50;2.47;;;;;;;27.86;25.50;95730.69;5415953;26;19999;-74
2024/04/14 09:47:53;;;;;;;7.20;3.60;;;;;;;28.09;24.51;95725.50;5445961;26;20009;-74
2024/04/14 09:50:20;;;;;;;4.55;2.58;;;;;;;28.38;24.61;95726.66;5445077;26;20006;-74
2024/04/14 09:52:47;;;;;;;4.60;2.40;;;;;;;28.63;23.28;95735.81;5446243;26;19991;-74
2024/04/14 09:55:12;;;;;;;3.85;2.00;;;;;;;28.90;23.03;95720.41;5414905;26;20417;-73
2024/04/14 09:57:37;;;;;;;6.35;2.40;;;;;;;29.21;23.17;95723.78;5447837;26;20494;-73
2024/04/14 10:00:03;;;;;;;4.32;2.50;;;;;;;29.46;22.90;95716.59;5447581;26;20003;-74
2024/04/14 10:02:35;;;;;;;5.47;2.28;;;;;;;29.67;22.63;95713.91;5445699;26;19995;-74
2024/04/14 10:05:01;;;;;;;4.47;2.60;;;;;;;29.79;22.20;95706.69;5445809;26;19995;-75
2024/04/14 10:07:27;;;;;;;3.33;2.25;;;;;;;29.88;22.47;95711.91;5415169;26;19995;-73
2024/04/14 10:09:55;;;;;;;7.63;4.53;;;;;;;30.07;22.00;95705.31;5445974;26;20006;-75
2024/04/14 10:12:21;;;;;;;8.98;3.80;;;;;;;30.22;22.16;95697.00;5444723;26;19999;-73
2024/04/14 10:14:47;;;;;;;5.78;3.00;;;;;;;30.46;21.44;95701.63;5445803;26;19999;-74
2024/04/14 10:17:13;;;;;;;5.32;3.40;;;;;;;30.65;21.55;95695.75;5445389;26;19995;-74
2024/04/14 10:19:39;;;;;;;8.38;5.25;;;;;;;30.81;20.07;95691.75;5416072;26;20037;-74
2024/04/14 10:22:10;;;;;;;3.97;2.63;;;;;;;30.81;18.60;95683.25;5447662;26;20005;-74
2024/04/14 10:24:49;;;;;;;6.47;3.20;;;;;;;31.03;20.08;95679.09;5445182;26;19998;-73
2024/04/14 10:27:15;;;;;;;4.57;2.75;;;;;;;31.10;19.43;95674.78;5445594;26;20425;-74
2024/04/14 10:29:41;;;;;;;5.65;2.58;;;;;;;31.19;20.04;95674.25;5443947;26;20002;-75
2024/04/14 10:32:10;;;;;;;4.22;1.90;;;;;;;31.19;18.64;95671.41;5445391;26;19995;-73
2024/04/14 10:34:35;;;;;;;6.45;3.63;;;;;;;31.28;18.84;95662.41;5446982;26;20003;-74
2024/04/14 10:37:01;;;;;;;4.63;2.70;;;;;;;31.49;19.12;95672.97;5444880;26;20326;-74
2024/04/14 10:39:26;;;;;;;5.85;2.83;;;;;;;31.72;19.18;95674.59;5444139;26;19995;-75
2024/04/14 10:41:51;;;;;;;5.55;2.50;;;;;;;31.96;19.12;95659.19;5446388;26;19994;-75
2024/04/14 10:44:18;;;;;;;3.80;2.22;;;;;;;32.19;18.37;95652.81;5414319;26;20040;-74
2024/04/14 10:46:44;;;;;;;5.38;2.83;;;;;;;32.35;18.02;95657.25;5444312;26;20091;-77
2024/04/14 10:49:10;;;;;;;7.28;2.45;;;;;;;32.43;17.47;95658.00;5444546;26;19995;-75
2024/04/14 10:51:36;;;;;;;5.43;1.90;;;;;;;32.76;17.46;95644.00;5444583;26;19994;-76
2024/04/14 10:54:02;;;;;;;4.85;2.70;;;;;;;32.97;17.06;95650.25;5415392;26;20010;-76
2024/04/14 10:56:28;;;;;;;5.65;2.35;;;;;;;33.23;17.23;95649.09;5444916;26;19991;-77
2024/04/14 10:58:53;;;;;;;4.03;1.83;;;;;;;33.75;16.60;95649.56;5446779;26;20403;-76
2024/04/14 11:01:19;;;;;;;7.72;2.25;;;;;;;33.97;16.33;95645.13;5445123;26;20006;-76
2024/04/14 11:03:45;;;;;;;3.47;1.88;;;;;;;34.31;15.84;95644.56;5444430;26;20452;-77
2024/04/14 11:06:10;;;;;;;4.30;1.77;;;;;;;34.61;15.62;95637.16;5444439;26;20313;-75
2024/04/14 11:08:38;;;;;;;3.63;1.98;;;;;;;35.23;14.99;95640.28;5414699;26;19994;-76
2024/04/14 11:11:04;;;;;;;3.25;1.90;;;;;;;35.93;14.59;95633.22;5444922;26;20010;-74
2024/04/14 11:13:30;;;;;;;3.08;1.60;;;;;;;36.34;13.59;95630.78;5414619;26;20044;-76
2024/04/14 11:15:58;;;;;;;12.05;2.50;;;;;;;36.91;14.18;95629.56;5445160;26;20023;-74
2024/04/14 11:18:28;;;;;;;10.07;2.20;;;;;;;37.73;14.42;95631.50;5414837;26;20329;-74
2024/04/14 11:20:54;;;;;;;5.25;2.17;;;;;;;38.48;14.97;95624.78;5444343;26;20028;-76
2024/04/14 11:23:21;;;;;;;6.05;2.67;;;;;;;38.90;12.74;95620.53;5444936;26;19994;-74
2024/04/14 11:25:46;;;;;;;4.10;1.80;;;;;;;39.26;11.78;95613.69;5444432;26;20370;-74